Time;durP1;ratioP1;P1;durP2;ratioP2;P2;SDS_P1;SDS_P2;PMS_P1;PMS_P2;Temp;Humidity;BMP_temperature;BMP_pressure;BME280_temperature;BME280_humidity;BME280_pressure;Samples;Min_cycle;Max_cycle;Signal;HPM_P1;HPM_P2
2020/12/12 00:01:43;;;;;;;14.02;10.13;;;2.70;99.90;;;;;;5040018;28;20049;-74
2020/12/12 00:04:10;;;;;;;14.35;10.07;;;2.80;99.90;;;;;;5047729;28;20550;-74
2020/12/12 00:06:36;;;;;;;15.07;10.65;;;2.80;99.90;;;;;;5049096;28;20057;-74
2020/12/12 00:09:03;;;;;;;17.58;11.50;;;2.80;99.90;;;;;;5042545;28;20053;-75
2020/12/12 00:11:30;;;;;;;16.88;11.48;;;2.80;99.90;;;;;;5035393;28;20415;-74
2020/12/12 00:13:57;;;;;;;17.45;11.60;;;2.80;99.90;;;;;;5048297;28;20496;-76
2020/12/12 00:16:23;;;;;;;19.40;12.73;;;2.80;99.90;;;;;;5050105;28;20057;-74
2020/12/12 00:18:50;;;;;;;18.90;12.88;;;2.70;99.90;;;;;;5047837;28;20111;-74
2020/12/12 00:21:23;;;;;;;22.42;13.43;;;2.70;99.90;;;;;;5048780;28;20052;-75
2020/12/12 00:23:50;;;;;;;20.45;13.48;;;2.70;99.90;;;;;;5047470;28;20079;-75
2020/12/12 00:26:20;;;;;;;21.95;13.90;;;2.70;99.90;;;;;;5046203;28;20060;-74
2020/12/12 00:28:48;;;;;;;20.95;13.93;;;2.70;99.90;;;;;;5048141;28;20048;-74
2020/12/12 00:31:18;;;;;;;21.30;13.43;;;2.60;99.90;;;;;;5047347;28;20536;-74
2020/12/12 00:33:46;;;;;;;22.58;14.35;;;2.60;99.90;;;;;;5035115;28;20488;-74
2020/12/12 00:36:12;;;;;;;21.90;14.27;;;2.60;99.90;;;;;;5048703;28;20075;-74
2020/12/12 00:38:39;;;;;;;20.67;14.77;;;2.70;99.90;;;;;;5040678;28;20507;-76
2020/12/12 00:41:06;;;;;;;21.73;14.45;;;2.70;99.90;;;;;;5048082;28;20041;-75
2020/12/12 00:43:33;;;;;;;21.63;14.27;;;2.70;99.90;;;;;;5047594;28;20080;-75
2020/12/12 00:46:01;;;;;;;23.83;15.05;;;2.60;99.90;;;;;;5049487;28;20110;-77
2020/12/12 00:48:27;;;;;;;26.65;15.38;;;2.60;99.90;;;;;;5049037;28;20488;-76
2020/12/12 00:50:54;;;;;;;21.55;13.98;;;2.60;99.90;;;;;;5049755;28;20112;-75
2020/12/12 00:53:20;;;;;;;24.40;14.10;;;2.60;99.90;;;;;;5047242;28;20056;-75
2020/12/12 00:55:46;;;;;;;21.70;14.40;;;2.60;99.90;;;;;;5047656;28;20468;-75
2020/12/12 00:58:14;;;;;;;23.85;14.73;;;2.60;99.90;;;;;;5047485;28;20071;-76
2020/12/12 01:00:40;;;;;;;24.08;15.38;;;2.60;99.90;;;;;;5045016;28;20060;-75
2020/12/12 01:03:07;;;;;;;23.23;16.00;;;2.60;99.90;;;;;;5047562;28;20512;-75
2020/12/12 01:05:33;;;;;;;25.25;16.35;;;2.70;99.90;;;;;;5048374;28;20127;-75
2020/12/12 01:08:00;;;;;;;26.52;16.33;;;2.60;99.90;;;;;;5045140;28;20424;-77
2020/12/12 01:10:27;;;;;;;26.08;15.98;;;2.60;99.90;;;;;;5047619;28;20064;-74
2020/12/12 01:12:54;;;;;;;23.88;15.70;;;2.60;99.90;;;;;;5047357;28;20565;-75
2020/12/12 01:15:21;;;;;;;23.27;14.05;;;2.60;99.90;;;;;;5048331;28;20509;-75
2020/12/12 01:17:47;;;;;;;17.05;12.43;;;2.70;99.90;;;;;;5046880;28;20060;-74
2020/12/12 01:20:14;;;;;;;18.95;12.60;;;2.70;99.90;;;;;;5047919;28;20053;-75
2020/12/12 01:22:41;;;;;;;17.88;11.50;;;2.70;99.90;;;;;;5045933;28;20053;-74
2020/12/12 01:25:08;;;;;;;17.88;10.85;;;2.70;99.90;;;;;;5045778;28;20041;-75
2020/12/12 01:27:34;;;;;;;17.95;11.93;;;2.70;99.90;;;;;;5045127;28;20474;-75
2020/12/12 01:30:01;;;;;;;17.02;11.80;;;2.70;99.90;;;;;;5047355;28;20373;-76
2020/12/12 01:32:27;;;;;;;22.02;12.63;;;2.60;99.90;;;;;;5047399;28;20045;-75
2020/12/12 01:34:55;;;;;;;23.70;13.38;;;2.50;99.90;;;;;;5048086;28;20122;-75
2020/12/12 01:37:23;;;;;;;19.75;12.65;;;2.50;99.90;;;;;;5047126;28;20140;-77
2020/12/12 01:39:49;;;;;;;17.60;12.32;;;2.40;99.90;;;;;;5042191;28;20046;-75
2020/12/12 01:42:16;;;;;;;18.38;12.32;;;2.40;99.90;;;;;;5047459;28;20490;-75
2020/12/12 01:44:42;;;;;;;22.73;13.15;;;2.50;99.90;;;;;;5048687;28;20496;-74
2020/12/12 01:47:09;;;;;;;16.52;11.25;;;2.50;99.90;;;;;;5051441;28;20052;-74
2020/12/12 01:49:36;;;;;;;14.43;10.50;;;2.60;99.90;;;;;;5052494;28;20104;-74
2020/12/12 01:52:05;;;;;;;20.40;12.38;;;2.70;99.90;;;;;;5051027;28;20110;-75
2020/12/12 01:54:33;;;;;;;16.35;11.27;;;2.70;99.90;;;;;;5047490;28;20077;-75
2020/12/12 01:57:03;;;;;;;16.25;10.45;;;2.70;99.90;;;;;;5051509;28;20060;-76
2020/12/12 01:59:30;;;;;;;18.63;11.80;;;2.70;99.90;;;;;;5052204;28;20080;-75
2020/12/12 02:02:00;;;;;;;18.23;11.60;;;2.70;99.90;;;;;;5052672;28;20118;-77
2020/12/12 02:04:30;;;;;;;18.52;13.05;;;2.70;99.90;;;;;;5049017;28;20057;-77
2020/12/12 02:06:56;;;;;;;18.92;13.25;;;2.70;99.90;;;;;;5051120;28;20102;-76
2020/12/12 02:09:23;;;;;;;22.60;14.55;;;2.70;99.90;;;;;;5046876;28;20083;-74
2020/12/12 02:11:49;;;;;;;23.45;14.27;;;2.70;99.90;;;;;;5039837;28;20442;-74
2020/12/12 02:14:16;;;;;;;26.25;15.30;;;2.70;99.90;;;;;;5051876;28;20151;-75
2020/12/12 02:16:54;;;;;;;25.88;15.30;;;2.70;99.90;;;;;;5051032;28;20414;-75
2020/12/12 02:19:21;;;;;;;22.63;15.27;;;2.70;99.90;;;;;;5051908;28;20063;-75
2020/12/12 02:21:58;;;;;;;25.83;15.60;;;2.70;99.90;;;;;;5052021;28;20049;-76
2020/12/12 02:24:29;;;;;;;26.67;15.60;;;2.70;99.90;;;;;;5046208;28;20093;-74
2020/12/12 02:27:04;;;;;;;23.02;14.85;;;2.70;99.90;;;;;;5048841;28;20476;-75
2020/12/12 02:32:27;;;;;;;24.48;16.00;;;2.70;99.90;;;;;;5050577;28;20118;-75
2020/12/12 02:34:53;;;;;;;24.80;16.25;;;2.70;99.90;;;;;;5049204;28;20056;-74
2020/12/12 02:37:20;;;;;;;22.75;15.73;;;2.70;99.90;;;;;;5050439;28;20045;-74
2020/12/12 02:39:46;;;;;;;25.27;16.75;;;2.70;99.90;;;;;;5048232;28;20045;-74
2020/12/12 02:42:12;;;;;;;26.30;17.38;;;2.60;99.90;;;;;;5051215;28;20102;-74
2020/12/12 02:44:39;;;;;;;27.48;17.48;;;2.60;99.90;;;;;;5051063;28;20084;-74
2020/12/12 02:47:05;;;;;;;24.88;16.20;;;2.60;99.90;;;;;;5050392;28;20446;-75
2020/12/12 02:49:32;;;;;;;25.42;16.45;;;2.60;99.90;;;;;;5042400;28;20141;-75
2020/12/12 02:51:58;;;;;;;31.27;17.45;;;2.60;99.90;;;;;;5048838;28;21238;-74
2020/12/12 02:54:25;;;;;;;24.45;16.02;;;2.60;99.90;;;;;;5048102;28;20157;-75
2020/12/12 02:56:51;;;;;;;29.38;17.92;;;2.60;99.90;;;;;;5049962;28;20052;-76
2020/12/12 02:59:17;;;;;;;29.58;18.48;;;2.60;99.90;;;;;;5046360;28;20148;-75
2020/12/12 03:01:44;;;;;;;29.80;18.27;;;2.60;99.90;;;;;;5049811;28;20488;-75
2020/12/12 03:04:11;;;;;;;29.52;18.20;;;2.60;99.90;;;;;;5049048;28;20106;-76
2020/12/12 03:06:43;;;;;;;31.60;19.88;;;2.60;99.90;;;;;;5050125;28;20496;-75
2020/12/12 03:09:11;;;;;;;32.13;19.52;;;2.60;99.90;;;;;;5047268;28;20170;-76
2020/12/12 03:11:37;;;;;;;30.75;19.10;;;2.60;99.90;;;;;;5050618;28;20090;-76
2020/12/12 03:14:04;;;;;;;30.60;18.55;;;2.60;99.90;;;;;;5050967;28;20137;-76
2020/12/12 03:16:30;;;;;;;31.35;18.92;;;2.60;99.90;;;;;;5051377;28;20073;-75
2020/12/12 03:18:57;;;;;;;30.23;19.02;;;2.60;99.90;;;;;;5050447;28;20045;-77
2020/12/12 03:21:23;;;;;;;31.13;18.88;;;2.70;99.90;;;;;;5051353;28;20045;-73
2020/12/12 03:23:50;;;;;;;31.88;19.13;;;2.70;99.90;;;;;;5045206;28;20076;-73
2020/12/12 03:26:16;;;;;;;27.85;18.05;;;2.80;99.90;;;;;;5049124;28;20045;-75
2020/12/12 03:28:42;;;;;;;28.85;18.30;;;2.70;99.90;;;;;;5047196;28;20068;-75
2020/12/12 03:31:09;;;;;;;34.05;19.27;;;2.80;99.90;;;;;;5050724;28;20147;-74
2020/12/12 03:33:35;;;;;;;29.92;18.70;;;2.80;99.90;;;;;;5049034;28;20053;-74
2020/12/12 03:36:02;;;;;;;26.90;17.20;;;2.80;99.90;;;;;;5049130;28;20044;-75
2020/12/12 03:38:29;;;;;;;28.42;17.63;;;2.80;99.90;;;;;;5048445;28;20079;-76
2020/12/12 03:40:55;;;;;;;26.92;17.40;;;2.90;99.90;;;;;;5048982;28;20508;-75
2020/12/12 03:43:24;;;;;;;26.40;17.77;;;2.90;99.90;;;;;;5048462;28;20144;-74
2020/12/12 03:45:51;;;;;;;26.88;17.30;;;2.90;99.90;;;;;;5050450;28;20056;-74
2020/12/12 03:48:18;;;;;;;30.00;18.25;;;2.90;99.90;;;;;;5049897;28;20090;-74
2020/12/12 03:50:44;;;;;;;27.45;17.52;;;2.90;99.90;;;;;;5050149;28;20560;-74
2020/12/12 03:53:11;;;;;;;26.40;17.50;;;2.90;99.90;;;;;;5044954;28;20103;-74
2020/12/12 03:55:37;;;;;;;26.98;17.02;;;2.90;99.90;;;;;;5047788;28;20073;-74
2020/12/12 03:58:04;;;;;;;27.17;17.08;;;3.00;99.90;;;;;;5047086;28;20368;-75
2020/12/12 04:00:31;;;;;;;23.42;16.42;;;3.00;99.90;;;;;;5038213;28;20067;-74
2020/12/12 04:02:57;;;;;;;24.95;15.75;;;3.00;99.90;;;;;;5048131;28;20091;-75
2020/12/12 04:05:24;;;;;;;24.67;16.23;;;3.00;99.90;;;;;;5048974;28;20132;-75
2020/12/12 04:07:50;;;;;;;26.02;16.98;;;3.00;99.90;;;;;;5047026;28;20068;-74
2020/12/12 04:10:16;;;;;;;24.08;15.85;;;2.90;99.90;;;;;;5038872;28;20098;-74
2020/12/12 04:12:43;;;;;;;27.02;17.77;;;2.90;99.90;;;;;;5046712;28;20049;-74
2020/12/12 04:15:10;;;;;;;24.83;16.33;;;2.90;99.90;;;;;;5048713;28;20044;-75
2020/12/12 04:17:36;;;;;;;25.85;16.25;;;2.90;99.90;;;;;;5049489;28;20045;-75
2020/12/12 04:20:03;;;;;;;25.27;16.35;;;3.00;99.90;;;;;;5049862;28;20079;-76
2020/12/12 04:22:30;;;;;;;24.77;16.83;;;3.00;99.90;;;;;;5048245;28;20048;-75
2020/12/12 04:24:56;;;;;;;24.33;16.40;;;3.00;99.90;;;;;;5034223;28;20073;-77
2020/12/12 04:27:22;;;;;;;24.00;16.98;;;3.00;99.90;;;;;;5046960;28;20049;-77
2020/12/12 04:29:49;;;;;;;25.85;16.13;;;3.00;99.90;;;;;;5048918;28;20087;-75
2020/12/12 04:32:15;;;;;;;26.77;17.20;;;3.00;99.90;;;;;;5048384;28;20083;-73
2020/12/12 04:34:41;;;;;;;29.10;17.63;;;2.90;99.90;;;;;;5047668;28;20449;-73
2020/12/12 04:37:09;;;;;;;25.05;16.90;;;3.00;99.90;;;;;;5047938;28;20049;-74
2020/12/12 04:39:36;;;;;;;26.77;17.67;;;2.90;99.90;;;;;;5042476;28;20107;-74
2020/12/12 04:42:04;;;;;;;25.70;16.50;;;2.90;99.90;;;;;;5047818;28;20045;-75
2020/12/12 04:44:31;;;;;;;26.55;16.88;;;2.90;99.90;;;;;;5047707;28;20459;-74
2020/12/12 04:46:59;;;;;;;27.10;17.50;;;2.90;99.90;;;;;;5049247;28;20535;-74
2020/12/12 04:49:26;;;;;;;27.38;17.33;;;2.90;99.90;;;;;;5049051;28;20388;-74
2020/12/12 04:51:53;;;;;;;25.33;16.90;;;2.90;99.90;;;;;;5047787;28;20049;-74
2020/12/12 04:54:20;;;;;;;25.15;15.55;;;2.90;99.90;;;;;;5043911;28;20084;-75
2020/12/12 04:57:07;;;;;;;21.65;15.40;;;2.90;99.90;;;;;;5048934;28;20402;-75
2020/12/12 04:59:34;;;;;;;24.50;15.13;;;3.00;99.90;;;;;;5048874;28;20124;-74
2020/12/12 05:02:02;;;;;;;21.15;14.55;;;3.00;99.90;;;;;;5047248;28;20142;-75
2020/12/12 05:04:29;;;;;;;21.65;13.80;;;3.10;99.90;;;;;;5047342;28;20476;-74
2020/12/12 05:06:56;;;;;;;24.05;15.77;;;3.10;99.90;;;;;;5047928;28;20488;-74
2020/12/12 05:09:22;;;;;;;23.42;15.30;;;3.10;99.90;;;;;;5045889;28;20077;-73
2020/12/12 05:11:49;;;;;;;25.02;15.75;;;3.10;99.90;;;;;;5048731;28;20518;-73
2020/12/12 05:14:16;;;;;;;27.33;16.45;;;3.10;99.90;;;;;;5047339;28;20207;-73
2020/12/12 05:16:44;;;;;;;25.17;16.05;;;3.00;99.90;;;;;;5049035;28;20575;-75
2020/12/12 05:19:13;;;;;;;26.00;17.33;;;3.00;99.90;;;;;;5050704;28;20057;-74
2020/12/12 05:21:50;;;;;;;31.63;17.10;;;3.00;99.90;;;;;;5051716;28;20231;-74
2020/12/12 05:24:17;;;;;;;27.55;17.48;;;3.00;99.90;;;;;;5049259;28;20491;-75
2020/12/12 05:26:44;;;;;;;27.30;17.13;;;3.00;99.90;;;;;;5053112;28;20076;-73
2020/12/12 05:29:15;;;;;;;28.33;17.38;;;3.00;99.90;;;;;;5050775;28;20484;-74
2020/12/12 05:31:42;;;;;;;28.23;18.05;;;3.00;99.90;;;;;;5052577;28;20210;-74
2020/12/12 05:34:14;;;;;;;28.73;17.20;;;3.00;99.90;;;;;;5051437;28;20063;-76
2020/12/12 05:36:43;;;;;;;25.90;16.37;;;3.00;99.90;;;;;;5051209;28;20399;-76
2020/12/12 05:39:11;;;;;;;31.63;18.38;;;2.90;99.90;;;;;;5049544;28;20080;-75
2020/12/12 05:41:38;;;;;;;32.20;18.58;;;2.90;99.90;;;;;;5038420;28;20437;-75
2020/12/12 05:44:05;;;;;;;28.90;17.58;;;2.90;99.90;;;;;;5047866;28;20049;-75
2020/12/12 05:46:33;;;;;;;28.98;18.48;;;2.90;99.90;;;;;;5051269;28;20044;-75
2020/12/12 05:49:01;;;;;;;30.30;18.83;;;2.90;99.90;;;;;;5050875;28;20053;-76
2020/12/12 05:51:29;;;;;;;29.15;18.40;;;2.90;99.90;;;;;;5052266;28;20053;-75
2020/12/12 05:53:57;;;;;;;25.52;16.55;;;2.90;99.90;;;;;;5049148;28;20057;-74
2020/12/12 05:56:27;;;;;;;27.92;16.85;;;2.90;99.90;;;;;;5049809;28;20045;-74
2020/12/12 05:58:54;;;;;;;24.83;14.95;;;3.00;99.90;;;;;;5050937;28;20049;-74
2020/12/12 06:01:28;;;;;;;24.60;14.77;;;3.00;99.90;;;;;;5051265;28;20201;-74
2020/12/12 06:04:08;;;;;;;23.63;15.18;;;3.00;99.90;;;;;;5049292;28;20504;-74
2020/12/12 06:06:46;;;;;;;22.35;14.38;;;3.00;99.90;;;;;;5050966;28;20140;-75
2020/12/12 06:09:14;;;;;;;21.15;13.32;;;3.00;99.90;;;;;;5048443;28;20739;-75
2020/12/12 06:11:43;;;;;;;20.35;13.48;;;3.00;99.90;;;;;;5050845;28;20118;-75
2020/12/12 06:14:11;;;;;;;19.58;12.95;;;3.10;99.90;;;;;;5052013;28;20048;-74
2020/12/12 06:16:38;;;;;;;19.83;13.77;;;3.10;99.90;;;;;;5050988;28;20107;-74
2020/12/12 06:19:17;;;;;;;18.25;11.65;;;3.10;99.90;;;;;;5036855;28;20409;-74
2020/12/12 06:21:48;;;;;;;18.40;12.95;;;3.10;99.90;;;;;;5052086;28;20159;-75
2020/12/12 06:24:18;;;;;;;22.55;13.85;;;3.00;99.90;;;;;;5046892;28;20053;-74
2020/12/12 06:27:07;;;;;;;18.90;13.40;;;3.00;99.90;;;;;;5050662;28;20060;-75
2020/12/12 06:29:46;;;;;;;21.60;13.63;;;3.00;99.90;;;;;;5051101;28;20047;-74
2020/12/12 06:32:14;;;;;;;22.83;14.85;;;3.00;99.90;;;;;;5050314;28;20190;-73
2020/12/12 06:34:48;;;;;;;23.77;15.43;;;3.00;99.90;;;;;;5051248;28;20114;-74
2020/12/12 06:37:36;;;;;;;23.00;14.38;;;2.90;99.90;;;;;;5049630;28;20087;-74
2020/12/12 06:40:08;;;;;;;25.00;14.82;;;2.90;99.90;;;;;;5038517;28;20047;-74
2020/12/12 06:42:38;;;;;;;24.23;15.25;;;2.90;99.90;;;;;;5049964;28;20075;-74
2020/12/12 06:45:17;;;;;;;25.00;15.65;;;2.90;99.90;;;;;;5037040;28;20099;-76
2020/12/12 06:47:45;;;;;;;23.90;15.18;;;2.90;99.90;;;;;;5051055;28;20056;-75
2020/12/12 06:50:15;;;;;;;27.70;16.85;;;2.90;99.90;;;;;;5050199;28;20073;-74
2020/12/12 06:52:43;;;;;;;26.77;15.52;;;2.90;99.90;;;;;;5048606;28;20602;-75
2020/12/12 06:55:15;;;;;;;28.65;16.98;;;2.80;99.90;;;;;;5048164;28;20053;-74
2020/12/12 06:57:43;;;;;;;30.65;17.35;;;2.80;99.90;;;;;;5049474;28;20860;-74
2020/12/12 07:00:18;;;;;;;26.50;16.33;;;2.90;99.90;;;;;;5049712;28;20099;-74
2020/12/12 07:03:02;;;;;;;28.00;16.38;;;2.80;99.90;;;;;;5051020;28;20103;-74
2020/12/12 07:05:35;;;;;;;29.25;17.27;;;2.80;99.90;;;;;;5050107;28;20049;-75
2020/12/12 07:08:09;;;;;;;27.75;16.83;;;2.90;99.90;;;;;;5046159;28;20123;-75
2020/12/12 07:10:40;;;;;;;26.23;16.15;;;2.90;99.90;;;;;;5045805;28;20507;-74
2020/12/12 07:13:09;;;;;;;28.52;17.20;;;2.90;99.90;;;;;;5050422;28;20045;-74
2020/12/12 07:15:37;;;;;;;31.50;18.33;;;2.90;99.90;;;;;;5050714;28;20517;-73
2020/12/12 07:18:09;;;;;;;33.08;19.05;;;2.90;99.90;;;;;;5049272;28;20326;-74
2020/12/12 07:20:37;;;;;;;30.70;18.20;;;2.90;99.90;;;;;;5050922;28;20081;-74
2020/12/12 07:23:06;;;;;;;29.45;18.10;;;2.90;99.90;;;;;;5048812;28;20223;-77
2020/12/12 07:25:34;;;;;;;31.08;18.67;;;2.90;99.90;;;;;;5048703;28;20080;-75
2020/12/12 07:28:02;;;;;;;32.05;19.80;;;2.90;99.90;;;;;;5047920;28;20480;-77
2020/12/12 07:30:32;;;;;;;32.13;18.98;;;2.90;99.90;;;;;;5050854;28;20049;-75
2020/12/12 07:33:00;;;;;;;29.90;19.90;;;2.90;99.90;;;;;;5048967;28;20065;-78
2020/12/12 07:35:26;;;;;;;34.05;18.67;;;3.00;99.90;;;;;;5049864;28;20045;-75
2020/12/12 07:38:04;;;;;;;28.45;17.15;;;3.00;99.90;;;;;;5047487;28;20476;-75
2020/12/12 07:40:32;;;;;;;28.75;16.92;;;3.00;99.90;;;;;;5046290;28;20877;-75
2020/12/12 07:43:02;;;;;;;32.17;18.33;;;3.10;99.90;;;;;;5048838;28;20068;-78
2020/12/12 07:48:05;;;;;;;29.35;18.00;;;3.10;99.90;;;;;;5048976;28;20037;-75
2020/12/12 07:50:32;;;;;;;22.45;14.98;;;3.10;99.90;;;;;;5048980;28;20464;-77
2020/12/12 07:53:13;;;;;;;25.90;16.90;;;3.10;99.90;;;;;;5041935;28;20045;-79
2020/12/12 07:55:45;;;;;;;22.88;14.13;;;3.20;99.90;;;;;;5045784;28;20131;-75
2020/12/12 07:58:27;;;;;;;21.23;13.82;;;3.20;99.90;;;;;;5044204;28;20124;-75
2020/12/12 08:01:22;;;;;;;20.52;14.07;;;3.20;99.90;;;;;;5046889;28;20052;-77
2020/12/12 08:03:49;;;;;;;19.98;13.48;;;3.30;99.90;;;;;;5044994;28;20057;-74
2020/12/12 08:06:16;;;;;;;25.42;15.35;;;3.30;99.90;;;;;;5049941;28;20437;-74
2020/12/12 08:08:53;;;;;;;20.27;13.88;;;3.30;99.90;;;;;;5039491;28;20049;-74
2020/12/12 08:11:19;;;;;;;18.33;12.38;;;3.30;99.90;;;;;;5048240;28;20048;-74
2020/12/12 08:13:46;;;;;;;20.98;13.23;;;3.30;99.90;;;;;;5048525;28;20044;-74
2020/12/12 08:18:47;;;;;;;21.60;13.82;;;3.50;99.90;;;;;;5044635;28;20153;-73
2020/12/12 08:21:16;;;;;;;17.85;12.77;;;3.70;99.90;;;;;;5043437;28;20060;-73
2020/12/12 08:23:44;;;;;;;17.77;12.38;;;3.90;99.90;;;;;;5045958;28;20057;-74
2020/12/12 08:26:19;;;;;;;18.05;11.98;;;3.90;99.90;;;;;;5046706;28;20133;-74
2020/12/12 08:28:46;;;;;;;18.95;12.68;;;4.00;99.90;;;;;;5047092;28;20125;-73
2020/12/12 08:31:21;;;;;;;18.27;12.43;;;3.90;99.90;;;;;;5049092;28;20052;-74
2020/12/12 08:33:56;;;;;;;15.38;11.10;;;3.90;99.90;;;;;;5046285;28;20049;-74
2020/12/12 08:36:29;;;;;;;12.90;10.23;;;3.80;99.90;;;;;;5045210;28;20102;-73
2020/12/12 08:39:04;;;;;;;16.52;10.73;;;3.80;99.90;;;;;;5044977;28;20102;-73
2020/12/12 08:41:33;;;;;;;15.75;11.60;;;3.70;99.90;;;;;;5048197;28;20048;-73
2020/12/12 08:44:01;;;;;;;15.68;11.52;;;3.80;99.90;;;;;;5046091;28;20395;-74
2020/12/12 08:46:29;;;;;;;18.17;12.00;;;3.70;99.90;;;;;;5044350;28;20049;-76
2020/12/12 08:48:56;;;;;;;18.48;11.75;;;3.80;99.90;;;;;;5047831;28;20057;-74
2020/12/12 08:51:30;;;;;;;16.98;11.68;;;3.90;99.90;;;;;;5046325;28;20067;-75
2020/12/12 08:53:58;;;;;;;12.95;10.13;;;4.00;99.90;;;;;;5042084;28;20053;-74
2020/12/12 08:56:28;;;;;;;13.73;10.05;;;4.10;99.90;;;;;;5046225;28;20072;-74
2020/12/12 08:59:02;;;;;;;13.38;9.63;;;4.20;99.90;;;;;;5042105;28;20476;-75
2020/12/12 09:01:33;;;;;;;13.23;9.27;;;4.30;99.90;;;;;;5037085;28;20468;-75
2020/12/12 09:04:15;;;;;;;12.23;8.63;;;4.30;99.90;;;;;;5036723;28;20067;-75
2020/12/12 09:06:46;;;;;;;13.73;8.93;;;4.40;99.90;;;;;;5045800;28;20075;-75
2020/12/12 09:09:27;;;;;;;11.85;8.82;;;4.40;99.90;;;;;;5041052;28;20064;-75
2020/12/12 09:11:59;;;;;;;10.65;8.15;;;4.40;99.90;;;;;;5048592;28;20049;-74
2020/12/12 09:14:28;;;;;;;10.88;8.05;;;4.40;99.90;;;;;;5044683;28;20058;-74
2020/12/12 09:17:00;;;;;;;9.82;7.03;;;4.40;99.90;;;;;;5048664;28;20222;-74
2020/12/12 09:19:28;;;;;;;11.95;7.55;;;4.30;99.90;;;;;;5044388;28;20045;-75
2020/12/12 09:21:56;;;;;;;13.05;7.63;;;4.30;99.90;;;;;;5036693;28;20145;-75
2020/12/12 09:24:23;;;;;;;10.13;7.90;;;4.30;99.90;;;;;;5042066;28;20048;-74
2020/12/12 09:26:57;;;;;;;8.43;6.70;;;4.30;99.90;;;;;;5046727;28;20436;-74
2020/12/12 09:29:24;;;;;;;9.85;8.05;;;4.30;99.90;;;;;;5039273;28;20041;-75
2020/12/12 09:31:54;;;;;;;9.95;7.50;;;4.20;99.90;;;;;;5044002;28;20411;-75
2020/12/12 09:34:21;;;;;;;10.70;7.85;;;4.20;99.90;;;;;;5048250;28;20380;-75
2020/12/12 09:36:48;;;;;;;9.43;7.45;;;4.30;99.90;;;;;;5047299;28;20098;-75
2020/12/12 09:39:15;;;;;;;10.32;7.10;;;4.20;99.90;;;;;;5044559;28;20061;-75
2020/12/12 09:42:11;;;;;;;10.00;7.70;;;4.20;99.90;;;;;;5048772;28;20568;-74
2020/12/12 09:45:30;;;;;;;10.80;7.47;;;4.30;99.90;;;;;;4969111;28;20522;-74
2020/12/12 09:48:03;;;;;;;10.70;8.13;;;4.30;99.90;;;;;;4984704;28;20109;-74
2020/12/12 09:50:35;;;;;;;8.13;6.90;;;4.30;99.90;;;;;;4987395;28;20050;-75
2020/12/12 09:53:18;;;;;;;8.57;7.10;;;4.30;99.90;;;;;;4983880;28;20078;-75
2020/12/12 09:55:51;;;;;;;10.40;7.28;;;4.40;99.90;;;;;;4977712;28;20054;-74
2020/12/12 09:58:47;;;;;;;7.95;6.60;;;4.30;99.90;;;;;;4971957;28;20050;-74
2020/12/12 10:01:45;;;;;;;9.75;7.10;;;4.40;99.90;;;;;;4971581;28;20961;-74
2020/12/12 10:04:16;;;;;;;9.70;7.53;;;4.30;99.90;;;;;;5034166;28;20388;-74
2020/12/12 10:06:46;;;;;;;11.07;7.50;;;4.30;99.90;;;;;;5051822;28;20619;-74
2020/12/12 10:09:16;;;;;;;8.85;7.28;;;4.40;99.90;;;;;;5047888;28;20045;-75
2020/12/12 10:11:52;;;;;;;13.23;8.98;;;4.40;99.90;;;;;;5043889;28;20070;-74
2020/12/12 10:14:25;;;;;;;10.50;7.70;;;4.40;99.90;;;;;;5050716;28;20049;-75
2020/12/12 10:17:02;;;;;;;8.98;7.10;;;4.40;99.90;;;;;;5053501;28;20053;-75
2020/12/12 10:19:38;;;;;;;10.15;6.90;;;4.50;99.90;;;;;;5051325;28;20048;-75
2020/12/12 10:22:15;;;;;;;9.05;6.85;;;4.50;99.90;;;;;;5050973;28;20451;-74
2020/12/12 10:24:53;;;;;;;10.65;8.13;;;4.50;99.90;;;;;;5048420;28;20055;-74
2020/12/12 10:27:25;;;;;;;9.10;6.63;;;4.60;99.90;;;;;;5051190;28;20053;-75
2020/12/12 10:29:58;;;;;;;22.52;8.73;;;4.60;99.90;;;;;;5051222;28;20471;-76
2020/12/12 10:32:36;;;;;;;8.70;6.10;;;4.60;99.90;;;;;;5050534;28;20057;-75
2020/12/12 10:35:31;;;;;;;8.90;6.18;;;4.60;99.90;;;;;;5052269;28;20488;-76
2020/12/12 10:38:00;;;;;;;10.43;6.40;;;4.60;99.90;;;;;;5048372;28;20562;-76
2020/12/12 10:41:00;;;;;;;9.85;6.53;;;4.60;99.90;;;;;;5051895;28;20437;-74
2020/12/12 10:43:14;;;;;;;9.40;6.80;;;4.60;99.90;;;;;;5051369;28;20088;-75
2020/12/12 10:45:42;;;;;;;10.13;7.20;;;4.60;99.90;;;;;;5051660;28;20084;-75
2020/12/12 10:48:09;;;;;;;9.70;7.35;;;4.60;99.90;;;;;;5051711;28;20495;-75
2020/12/12 10:50:35;;;;;;;8.88;6.60;;;4.70;99.90;;;;;;5051789;28;20049;-75
2020/12/12 10:53:02;;;;;;;12.52;7.53;;;4.80;99.90;;;;;;5047999;28;20041;-76
2020/12/12 10:55:28;;;;;;;11.50;7.35;;;4.90;99.90;;;;;;5047424;28;20075;-76
2020/12/12 10:57:55;;;;;;;14.60;7.55;;;4.80;99.90;;;;;;5051201;28;20560;-77
2020/12/12 11:00:24;;;;;;;11.07;7.60;;;4.80;99.90;;;;;;5042565;28;20099;-75
2020/12/12 11:02:52;;;;;;;11.45;7.63;;;4.80;99.90;;;;;;5049796;28;20076;-75
2020/12/12 11:05:20;;;;;;;9.52;7.57;;;4.70;99.90;;;;;;5051336;28;20482;-74
2020/12/12 11:07:50;;;;;;;11.30;7.97;;;4.80;99.90;;;;;;5039936;28;20057;-75
2020/12/12 11:10:17;;;;;;;11.15;7.93;;;4.70;99.90;;;;;;5049398;28;20044;-75
2020/12/12 11:12:45;;;;;;;10.55;7.65;;;4.70;99.90;;;;;;5050505;28;20098;-76
2020/12/12 11:15:13;;;;;;;10.70;7.90;;;4.70;99.90;;;;;;5049879;28;20163;-75
2020/12/12 11:17:44;;;;;;;10.23;7.95;;;4.80;99.90;;;;;;5050124;28;20053;-75
2020/12/12 11:20:11;;;;;;;10.50;7.82;;;4.80;99.90;;;;;;5051411;28;20045;-75
2020/12/12 11:22:38;;;;;;;13.80;10.13;;;4.80;99.90;;;;;;5049300;28;20041;-75
2020/12/12 11:25:05;;;;;;;12.30;7.70;;;4.80;99.90;;;;;;5043182;28;20092;-76
2020/12/12 11:27:31;;;;;;;9.82;7.35;;;4.80;99.90;;;;;;5044413;28;20500;-75
2020/12/12 11:29:58;;;;;;;12.02;7.95;;;4.80;99.90;;;;;;5049811;28;20073;-76
2020/12/12 11:32:24;;;;;;;13.18;8.73;;;4.70;99.90;;;;;;5049454;28;20045;-76
2020/12/12 11:35:06;;;;;;;19.25;9.43;;;4.70;99.90;;;;;;5050054;28;20434;-75
2020/12/12 11:40:27;;;;;;;13.77;9.13;;;4.80;99.90;;;;;;5050230;28;20044;-74
2020/12/12 11:48:13;;;;;;;13.85;8.30;;;5.00;99.90;;;;;;5049014;28;20041;-75
2020/12/12 11:50:40;;;;;;;11.18;7.47;;;5.00;99.90;;;;;;5051487;28;20045;-74
2020/12/12 11:53:06;;;;;;;10.77;7.78;;;5.00;99.90;;;;;;5035480;28;20454;-81
2020/12/12 11:55:32;;;;;;;10.60;7.60;;;5.10;99.90;;;;;;5038692;28;20045;-76
2020/12/12 11:57:59;;;;;;;11.43;8.35;;;5.10;99.90;;;;;;5049850;28;20052;-77
2020/12/12 12:00:26;;;;;;;11.40;7.57;;;5.10;99.90;;;;;;5049250;28;20049;-75
2020/12/12 12:02:58;;;;;;;10.07;7.65;;;5.10;99.90;;;;;;5046193;28;20079;-75
2020/12/12 12:05:46;;;;;;;10.48;8.40;;;5.20;99.90;;;;;;5046552;28;20056;-76
2020/12/12 12:08:28;;;;;;;9.73;7.60;;;5.20;99.90;;;;;;5044559;28;20087;-76
2020/12/12 12:13:34;;;;;;;9.88;7.07;;;5.20;99.90;;;;;;5048118;28;20049;-76
2020/12/12 12:16:03;;;;;;;11.07;8.07;;;5.20;99.90;;;;;;5049607;28;20548;-77
2020/12/12 12:18:29;;;;;;;10.63;7.72;;;5.20;99.90;;;;;;5050084;28;20213;-76
2020/12/12 12:20:57;;;;;;;11.70;8.25;;;5.20;99.90;;;;;;5050362;28;21457;-76
2020/12/12 12:23:25;;;;;;;8.20;7.00;;;5.20;99.90;;;;;;5048235;28;20056;-77
2020/12/12 12:25:53;;;;;;;11.10;7.40;;;5.20;99.90;;;;;;5033565;28;20049;-75
2020/12/12 12:28:20;;;;;;;7.95;6.60;;;5.20;99.90;;;;;;5048811;28;20524;-77
2020/12/12 12:30:47;;;;;;;8.20;6.05;;;5.20;99.90;;;;;;5049566;28;20049;-77
2020/12/12 12:33:14;;;;;;;10.60;7.40;;;5.20;99.90;;;;;;5034924;28;20056;-77
2020/12/12 12:35:40;;;;;;;7.88;5.97;;;5.30;99.90;;;;;;5046555;28;20087;-77
2020/12/12 12:38:07;;;;;;;6.57;5.68;;;5.30;99.90;;;;;;5047050;28;20073;-78
2020/12/12 12:40:33;;;;;;;6.57;5.88;;;5.30;99.90;;;;;;5040553;28;20075;-77
2020/12/12 12:43:00;;;;;;;7.78;6.18;;;5.30;99.90;;;;;;5045001;28;20083;-78
2020/12/12 12:45:26;;;;;;;9.75;6.70;;;5.30;99.90;;;;;;5048329;28;20473;-77
2020/12/12 12:47:53;;;;;;;7.57;6.00;;;5.30;99.90;;;;;;5048473;28;20045;-76
2020/12/12 12:50:19;;;;;;;7.07;5.88;;;5.30;99.90;;;;;;5049378;28;20056;-75
2020/12/12 12:52:45;;;;;;;7.03;6.30;;;5.30;99.90;;;;;;5047716;28;20071;-77
2020/12/12 12:55:12;;;;;;;10.40;6.32;;;5.40;99.90;;;;;;5045073;28;20048;-77
2020/12/12 12:57:38;;;;;;;6.38;5.68;;;5.40;99.90;;;;;;5047535;28;20041;-78
2020/12/12 13:00:05;;;;;;;13.20;6.65;;;5.40;99.90;;;;;;5039471;28;20064;-76
2020/12/12 13:02:32;;;;;;;10.35;6.25;;;5.50;99.90;;;;;;5038709;28;20106;-77
2020/12/12 13:04:59;;;;;;;8.63;6.28;;;5.50;99.90;;;;;;5035356;28;20132;-77
2020/12/12 13:07:25;;;;;;;7.60;6.15;;;5.60;99.90;;;;;;5047033;28;20140;-78
2020/12/12 13:09:51;;;;;;;7.72;6.10;;;5.60;99.90;;;;;;5046453;28;20067;-76
2020/12/12 13:12:18;;;;;;;6.25;5.35;;;5.60;99.90;;;;;;5049580;28;20484;-76